Almo, KY

3:27 PM CST on February 09, 2016 (GMT -0600)
Kyle-Oakley | | Change Station
CLOSE
Current Station
Airport
Location: Murray,
Elevation: 577 ft
Nearby Weather Stations
Active Advisory: Special Statement Active Notice: Local Storm Report

Elev 577 ft 36.66 °N, 88.37 °W | Updated 12 minutes ago

Scattered Clouds
Scattered Clouds
23 °F
Feels Like 9 °F
N
17
Wind Variable Wind from NW
Gusts 22 mph

Today
High -- | Low -- °F
--% Chance of Precip.
Yesterday
High -- | Low -- °F
Precip. -- in
Pressure 30.02 in
Visibility 8.0 miles
Clouds Scattered Clouds 2500 ft
Windchill 9 °F
Dew Point 18 °F
Humidity 80%
Rainfall 0.00 in
Snow Depth Not available.
6:48 AM 5:27 PM
New Moon, 2% visible
METAR KCEY 092115Z AUTO 32015G19KT 8SM SCT025 M05/M08 A3002 RMK AO1
Pressure 30.02 in
Visibility 8.0 miles
Clouds Scattered Clouds 2500 ft
Windchill 9 °F
Dew Point 18 °F
Humidity 80%
Rainfall 0.00 in
Snow Depth Not available.
6:48 AM 5:27 PM
New Moon, 2% visible
METAR KCEY 092115Z AUTO 32015G19KT 8SM SCT025 M05/M08 A3002 RMK AO1

10-Day Weather Forecast

Almanac

Astronomy

Feb. 09, 2016 Rise Set
Actual Time
Civil Twilight
Nautical Twilight
Astronomical Twilight
Moon
Length of Visible Light
Length of Day
Tomorrow will be .
, % of the Moon is Illuminated

Today's Extremes

State Highs State Lows

Community

WunderPhotos

Upload Photos

1,891,708 photos uploaded!

WunderBlog® & News

Nearby

Air Quality

  Air Quality AQ Index Pollutant
Not available.

Snow Depth

Station Depth Elevation

Earthquake Activity

City Distance Mag. Time & Date
Minimum magnitude displayed is 2.5.

Coastal Water Temperatures

Place Temperature

Stations

Nearby Weather Stations

Station Location Temp. Windchill Dew Point Humidity Wind Precip. Elev Updated Type
                   

Watches & Warnings

Special Statement
Issued: 2:55 PM CST Feb. 9, 2016 – National Weather Service

... Slick spots will be possible on some area roadways into the
evening hours...

Continuing scattered light snow showers or flurries... mainly along
and east of the Mississippi River... will leave just enough
moisture on roadtop surfaces that freezing temperatures will turn
into icy slick spots on untreated roadways. Be aware of this
possibility as we head into the evening and the commuting hours.
Drive slowly and take it easy braking and turning just in case
there is a slick spot you cannot necessarily see.



255 PM CST Tue Feb 9 2016

... Slick spots will be possible on some area roadways into the
evening hours...

Continuing scattered light snow showers or flurries... mainly along
and east of the Mississippi River... will leave just enough
moisture on roadtop surfaces that freezing temperatures will turn
into icy slick spots on untreated roadways. Be aware of this
possibility as we head into the evening and the commuting hours.
Drive slowly and take it easy braking and turning just in case
there is a slick spot you cannot necessarily see.